Time;durP1;ratioP1;P1;durP2;ratioP2;P2;SDS_P1;SDS_P2;PMS_P1;PMS_P2;Temp;Humidity;BMP_temperature;BMP_pressure;BME280_temperature;BME280_humidity;BME280_pressure;Samples;Min_cycle;Max_cycle;Signal;HPM_P1;HPM_P2
2023/07/01 00:01:20;;;;;;;;;;;16.90;53.80;;;;;;4174505;28;19916;-83
2023/07/01 00:03:41;;;;;;;;;;;16.90;53.80;;;;;;4190445;28;19916;-84
2023/07/01 00:06:02;;;;;;;;;;;16.90;53.70;;;;;;4188729;28;19921;-85
2023/07/01 00:08:02;;;;;;;;;;;17.00;53.70;;;;;;4190818;28;19912;-83
2023/07/01 00:10:03;;;;;;;;;;;16.90;53.70;;;;;;4193548;28;19970;-83
2023/07/01 00:12:06;;;;;;;;;;;16.90;53.70;;;;;;4179942;28;19921;-83
2023/07/01 00:14:12;;;;;;;;;;;16.90;53.80;;;;;;4181356;28;20146;-82
2023/07/01 00:16:14;;;;;;;;;;;16.90;53.80;;;;;;4176878;28;19921;-83
2023/07/01 00:18:35;;;;;;;;;;;16.90;53.80;;;;;;4198607;28;20356;-82
2023/07/01 00:20:55;;;;;;;;;;;17.00;53.80;;;;;;4200463;28;19982;-83
2023/07/01 00:23:16;;;;;;;;;;;16.90;53.70;;;;;;4200050;28;19934;-83
2023/07/01 00:25:36;;;;;;;;;;;16.90;53.80;;;;;;4183505;28;19995;-83
2023/07/01 00:27:57;;;;;;;;;;;16.80;53.60;;;;;;4187687;28;19948;-83
2023/07/01 00:29:57;;;;;;;;;;;16.90;53.70;;;;;;4184839;28;19912;-82
2023/07/01 00:31:58;;;;;;;;;;;16.80;53.60;;;;;;4196767;28;19935;-83
2023/07/01 00:33:58;;;;;;;;;;;16.80;53.70;;;;;;4199016;28;19919;-84
2023/07/01 00:35:59;;;;;;;;;;;16.80;53.70;;;;;;4184360;28;19916;-84
2023/07/01 00:38:00;;;;;;;;;;;16.80;53.80;;;;;;4194386;28;19925;-83
2023/07/01 00:40:00;;;;;;;;;;;16.80;53.80;;;;;;4182049;28;19980;-83
2023/07/01 00:42:21;;;;;;;;;;;16.80;53.80;;;;;;4179301;28;19921;-83
2023/07/01 00:44:41;;;;;;;;;;;16.80;53.80;;;;;;4183842;28;19923;-83
2023/07/01 00:47:02;;;;;;;;;;;16.80;53.80;;;;;;4195841;28;19968;-83
2023/07/01 00:49:22;;;;;;;;;;;16.80;53.70;;;;;;4190110;28;19923;-84
2023/07/01 00:51:43;;;;;;;;;;;16.80;53.90;;;;;;4191759;28;20015;-84
2023/07/01 00:54:04;;;;;;;;;;;16.80;53.80;;;;;;4180931;28;19960;-83
2023/07/01 00:56:24;;;;;;;;;;;16.80;53.80;;;;;;4190205;28;19913;-83
2023/07/01 00:58:45;;;;;;;;;;;16.80;53.70;;;;;;4191549;28;19923;-83
2023/07/01 01:01:09;;;;;;;;;;;16.80;54.30;;;;;;4182411;28;19924;-83
2023/07/01 01:03:21;;;;;;;;;;;16.80;53.60;;;;;;4185340;28;19920;-82
2023/07/01 01:05:47;;;;;;;;;;;16.80;53.60;;;;;;4179775;28;20203;-84
2023/07/01 01:08:11;;;;;;;;;;;16.70;53.60;;;;;;4190840;28;19924;-85
2023/07/01 01:10:13;;;;;;;;;;;16.70;54.30;;;;;;4176550;28;19924;-83
2023/07/01 01:12:14;;;;;;;;;;;16.70;54.10;;;;;;4191368;28;19921;-84
2023/07/01 01:14:15;;;;;;;;;;;16.70;54.00;;;;;;4186850;28;20429;-83
2023/07/01 01:16:16;;;;;;;;;;;16.70;53.90;;;;;;4191378;28;20670;-83
2023/07/01 01:18:39;;;;;;;;;;;16.70;54.20;;;;;;4195508;28;19921;-85
2023/07/01 01:21:00;;;;;;;;;;;16.60;54.30;;;;;;4182273;28;19921;-83
2023/07/01 01:23:41;;;;;;;;;;;16.60;54.20;;;;;;4183745;28;20340;-85
2023/07/01 01:25:51;;;;;;;;;;;16.50;54.30;;;;;;4191293;28;19924;-82
2023/07/01 01:27:52;;;;;;;;;;;16.50;54.40;;;;;;4191023;28;20019;-84
2023/07/01 01:29:53;;;;;;;;;;;16.40;54.40;;;;;;4190634;28;19917;-83
2023/07/01 01:31:53;;;;;;;;;;;16.40;54.40;;;;;;4188478;28;20609;-83
2023/07/01 01:33:54;;;;;;;;;;;16.40;54.80;;;;;;4190535;28;19912;-82
2023/07/01 01:35:58;;;;;;;;;;;16.30;54.80;;;;;;4172179;28;19924;-83
2023/07/01 01:38:06;;;;;;;;;;;16.40;55.10;;;;;;4190545;28;19916;-84
2023/07/01 01:40:13;;;;;;;;;;;16.30;55.10;;;;;;4193789;28;19920;-83
2023/07/01 01:42:27;;;;;;;;;;;16.30;55.30;;;;;;4191907;28;20136;-82
2023/07/01 01:44:34;;;;;;;;;;;16.20;55.40;;;;;;4175176;28;19935;-83
2023/07/01 01:46:35;;;;;;;;;;;16.20;55.30;;;;;;4192801;28;19908;-83
2023/07/01 01:48:37;;;;;;;;;;;16.20;55.40;;;;;;4197068;28;19961;-83
2023/07/01 01:50:38;;;;;;;;;;;16.20;55.40;;;;;;4182104;28;19917;-83
2023/07/01 01:52:40;;;;;;;;;;;16.20;55.40;;;;;;4194403;28;19931;-83
2023/07/01 01:54:42;;;;;;;;;;;16.10;55.90;;;;;;4191657;28;19908;-84
2023/07/01 01:56:43;;;;;;;;;;;16.20;55.80;;;;;;4191800;28;19952;-86
2023/07/01 01:58:43;;;;;;;;;;;16.20;55.80;;;;;;4194201;28;20473;-82
2023/07/01 02:00:45;;;;;;;;;;;16.10;55.90;;;;;;4194477;28;19920;-84
2023/07/01 02:02:47;;;;;;;;;;;16.10;56.00;;;;;;4193350;28;19947;-83
2023/07/01 02:04:51;;;;;;;;;;;16.10;56.00;;;;;;4187786;28;19971;-84
2023/07/01 02:06:51;;;;;;;;;;;16.10;56.00;;;;;;4177028;28;19956;-84
2023/07/01 02:08:52;;;;;;;;;;;16.10;56.20;;;;;;4193262;28;19921;-84
2023/07/01 02:10:52;;;;;;;;;;;16.00;56.00;;;;;;4181513;28;19956;-83
2023/07/01 02:12:53;;;;;;;;;;;16.10;56.30;;;;;;4196436;28;19977;-83
2023/07/01 02:14:54;;;;;;;;;;;16.00;56.40;;;;;;4179263;28;20000;-83
2023/07/01 02:16:54;;;;;;;;;;;16.10;56.40;;;;;;4181123;28;19913;-84
2023/07/01 02:18:55;;;;;;;;;;;16.00;56.30;;;;;;4180804;28;19943;-83
2023/07/01 02:20:58;;;;;;;;;;;15.90;56.40;;;;;;4196656;28;19923;-84
2023/07/01 02:22:59;;;;;;;;;;;15.90;56.60;;;;;;4175602;28;19993;-84
2023/07/01 02:25:00;;;;;;;;;;;16.00;56.80;;;;;;4175217;28;19924;-84
2023/07/01 02:27:01;;;;;;;;;;;15.90;56.90;;;;;;4176617;28;19968;-85
2023/07/01 02:29:04;;;;;;;;;;;16.00;56.90;;;;;;4194878;28;19957;-83
2023/07/01 02:31:45;;;;;;;;;;;15.90;56.90;;;;;;4103416;28;19962;-84
2023/07/01 02:34:08;;;;;;;;;;;15.90;57.10;;;;;;4085344;28;19918;-84
2023/07/01 02:36:44;;;;;;;;;;;;;;;;;;;;;
2023/07/01 02:38:54;;;;;;;;;;;15.90;57.20;;;;;;4097785;28;20498;-83
2023/07/01 02:40:54;;;;;;;;;;;15.90;57.60;;;;;;4121973;28;19914;-82
2023/07/01 02:42:55;;;;;;;;;;;15.90;57.50;;;;;;4181909;28;19927;-84
2023/07/01 02:44:56;;;;;;;;;;;15.90;57.50;;;;;;4176059;28;19919;-83
2023/07/01 02:46:56;;;;;;;;;;;15.80;57.50;;;;;;4178797;28;19920;-82
2023/07/01 02:49:00;;;;;;;;;;;15.90;57.60;;;;;;4195604;28;19916;-83
2023/07/01 02:51:06;;;;;;;;;;;15.80;57.60;;;;;;4181014;28;19927;-82
2023/07/01 02:53:07;;;;;;;;;;;15.80;57.50;;;;;;4176637;28;19917;-83
2023/07/01 02:55:17;;;;;;;;;;;15.80;57.60;;;;;;4192008;28;19912;-83
2023/07/01 02:57:17;;;;;;;;;;;15.80;57.70;;;;;;4179687;28;19914;-83
2023/07/01 02:59:20;;;;;;;;;;;15.80;57.90;;;;;;4196326;28;19912;-82
2023/07/01 03:01:23;;;;;;;;;;;15.80;57.70;;;;;;4196637;28;19952;-83
2023/07/01 03:03:23;;;;;;;;;;;15.70;57.80;;;;;;4179118;28;19917;-83
2023/07/01 03:05:24;;;;;;;;;;;15.70;57.90;;;;;;4191899;28;19959;-81
2023/07/01 03:07:24;;;;;;;;;;;15.70;58.00;;;;;;4194228;28;19932;-81
2023/07/01 03:09:25;;;;;;;;;;;15.70;58.40;;;;;;4191425;28;19984;-84
2023/07/01 03:11:25;;;;;;;;;;;15.70;57.90;;;;;;4187865;28;20011;-82
2023/07/01 03:13:26;;;;;;;;;;;15.70;57.90;;;;;;4171684;28;19963;-82
2023/07/01 03:15:26;;;;;;;;;;;15.70;58.30;;;;;;4164012;28;19932;-82
2023/07/01 03:17:27;;;;;;;;;;;15.60;58.30;;;;;;4189632;28;19923;-83
2023/07/01 03:19:27;;;;;;;;;;;15.60;58.00;;;;;;4180989;28;19982;-82
2023/07/01 03:21:28;;;;;;;;;;;15.60;58.00;;;;;;4179732;28;19985;-81
2023/07/01 03:23:29;;;;;;;;;;;15.70;58.10;;;;;;4190668;28;20399;-82
2023/07/01 03:25:30;;;;;;;;;;;15.60;58.80;;;;;;4191791;28;20030;-82
2023/07/01 03:27:31;;;;;;;;;;;15.50;58.30;;;;;;4173688;28;20359;-83
2023/07/01 03:29:33;;;;;;;;;;;15.50;58.40;;;;;;4194593;28;20411;-81
2023/07/01 03:31:34;;;;;;;;;;;15.50;58.50;;;;;;4175100;28;20015;-83
2023/07/01 03:33:35;;;;;;;;;;;15.50;58.50;;;;;;4163385;28;19914;-82
2023/07/01 03:35:38;;;;;;;;;;;15.40;58.40;;;;;;4174756;28;20316;-81
2023/07/01 03:37:55;;;;;;;;;;;15.50;58.40;;;;;;4191241;28;19943;-82
2023/07/01 03:39:55;;;;;;;;;;;15.40;58.30;;;;;;4196910;28;20008;-82
2023/07/01 03:41:56;;;;;;;;;;;15.40;58.50;;;;;;4195163;28;20172;-82
2023/07/01 03:43:57;;;;;;;;;;;15.40;58.40;;;;;;4186750;28;19920;-82
2023/07/01 03:45:57;;;;;;;;;;;15.40;58.60;;;;;;4183297;28;19912;-80
2023/07/01 03:47:58;;;;;;;;;;;15.40;59.00;;;;;;4198070;28;19913;-82
2023/07/01 03:49:58;;;;;;;;;;;15.30;59.00;;;;;;4198987;28;20000;-80
2023/07/01 03:51:59;;;;;;;;;;;15.40;59.10;;;;;;4194393;28;19917;-82
2023/07/01 03:54:04;;;;;;;;;;;15.40;58.90;;;;;;4182290;28;19921;-82
2023/07/01 03:56:07;;;;;;;;;;;15.40;59.30;;;;;;4197272;28;19940;-83
2023/07/01 03:58:11;;;;;;;;;;;15.30;59.20;;;;;;4192037;28;20421;-82
2023/07/01 04:00:21;;;;;;;;;;;15.30;59.30;;;;;;4187777;28;19921;-83
2023/07/01 04:02:22;;;;;;;;;;;15.30;59.80;;;;;;4178986;28;20011;-82
2023/07/01 04:04:30;;;;;;;;;;;15.30;59.80;;;;;;4198981;28;19921;-81
2023/07/01 04:06:31;;;;;;;;;;;15.30;60.30;;;;;;4178515;28;20512;-82
2023/07/01 04:08:34;;;;;;;;;;;15.30;60.60;;;;;;4172618;28;20011;-83
2023/07/01 04:10:35;;;;;;;;;;;15.30;60.70;;;;;;4193126;28;19932;-82
2023/07/01 04:12:37;;;;;;;;;;;15.30;60.40;;;;;;4184478;28;19917;-82
2023/07/01 04:14:37;;;;;;;;;;;15.20;60.60;;;;;;4185481;28;19950;-82
2023/07/01 04:16:58;;;;;;;;;;;15.30;60.70;;;;;;4193149;28;20373;-83
2023/07/01 04:19:18;;;;;;;;;;;15.30;61.40;;;;;;4175475;28;20027;-83
2023/07/01 04:21:42;;;;;;;;;;;15.30;61.20;;;;;;4181119;28;20055;-82
2023/07/01 04:24:07;;;;;;;;;;;15.30;61.10;;;;;;4190274;28;20338;-82
2023/07/01 04:26:27;;;;;;;;;;;15.20;61.00;;;;;;4190044;28;20003;-84
2023/07/01 04:28:48;;;;;;;;;;;15.20;61.10;;;;;;4192291;28;19960;-82
2023/07/01 04:31:09;;;;;;;;;;;15.30;61.00;;;;;;4194505;28;19936;-82
2023/07/01 04:33:29;;;;;;;;;;;15.30;61.30;;;;;;4178348;28;19913;-83
2023/07/01 04:35:50;;;;;;;;;;;15.30;61.40;;;;;;4191922;28;19923;-81
2023/07/01 04:38:10;;;;;;;;;;;15.30;61.00;;;;;;4188099;28;19915;-79
2023/07/01 04:40:31;;;;;;;;;;;15.30;60.80;;;;;;4187294;28;19921;-81
2023/07/01 04:42:52;;;;;;;;;;;15.30;60.90;;;;;;4174721;28;19917;-82
2023/07/01 04:44:55;;;;;;;;;;;15.30;61.20;;;;;;4159150;28;19948;-83
2023/07/01 04:46:59;;;;;;;;;;;15.30;62.30;;;;;;4171518;28;19928;-81
2023/07/01 04:48:59;;;;;;;;;;;15.30;62.30;;;;;;4150101;28;20101;-81
2023/07/01 04:51:00;;;;;;;;;;;15.30;61.90;;;;;;4170647;28;20026;-82
2023/07/01 04:53:01;;;;;;;;;;;15.30;61.90;;;;;;4154735;28;19952;-82
2023/07/01 04:55:04;;;;;;;;;;;15.30;62.40;;;;;;4186393;28;20327;-81
2023/07/01 04:57:05;;;;;;;;;;;15.30;63.20;;;;;;4187922;28;20028;-82
2023/07/01 04:59:06;;;;;;;;;;;15.30;62.90;;;;;;4174224;28;20078;-83
2023/07/01 05:01:07;;;;;;;;;;;15.30;62.70;;;;;;4186861;28;19912;-82
2023/07/01 05:03:26;;;;;;;;;;;15.30;63.60;;;;;;4190251;28;19962;-81
2023/07/01 05:05:27;;;;;;;;;;;15.40;63.40;;;;;;4186786;28;19959;-82
2023/07/01 05:07:28;;;;;;;;;;;15.30;63.10;;;;;;4175391;28;19917;-82
2023/07/01 05:09:49;;;;;;;;;;;15.40;63.10;;;;;;4176166;28;19924;-81
2023/07/01 05:11:50;;;;;;;;;;;15.40;62.70;;;;;;4175328;28;19913;-80
2023/07/01 05:14:10;;;;;;;;;;;15.40;62.70;;;;;;4187982;28;19962;-82
2023/07/01 05:16:34;;;;;;;;;;;15.40;62.60;;;;;;4191303;28;19908;-82
2023/07/01 05:19:26;;;;;;;;;;;15.40;63.30;;;;;;4183026;28;19929;-82
2023/07/01 05:21:51;;;;;;;;;;;15.40;63.20;;;;;;4191259;28;19920;-82
2023/07/01 05:24:11;;;;;;;;;;;15.40;62.90;;;;;;4189174;28;19943;-81
2023/07/01 05:26:42;;;;;;;;;;;15.40;63.10;;;;;;4182403;28;19912;-81
2023/07/01 05:29:03;;;;;;;;;;;15.40;63.20;;;;;;4170088;28;20373;-82
2023/07/01 05:31:23;;;;;;;;;;;15.50;63.40;;;;;;4188133;28;19923;-83
2023/07/01 05:33:44;;;;;;;;;;;15.50;63.30;;;;;;4191615;28;19921;-81
2023/07/01 05:35:55;;;;;;;;;;;15.50;63.20;;;;;;4177048;28;19920;-80
2023/07/01 05:37:56;;;;;;;;;;;15.50;63.80;;;;;;4157086;28;19955;-80
2023/07/01 05:39:57;;;;;;;;;;;15.50;63.40;;;;;;4165864;28;19917;-80
2023/07/01 05:41:57;;;;;;;;;;;15.60;63.60;;;;;;4177638;28;19917;-81
2023/07/01 05:44:07;;;;;;;;;;;15.60;63.60;;;;;;4189436;28;19916;-81
2023/07/01 05:46:15;;;;;;;;;;;15.50;63.50;;;;;;4169245;28;20443;-81
2023/07/01 05:48:21;;;;;;;;;;;15.60;64.30;;;;;;4174796;28;20319;-81
2023/07/01 05:50:22;;;;;;;;;;;15.60;64.00;;;;;;4167771;28;19920;-81
2023/07/01 05:52:23;;;;;;;;;;;15.60;64.00;;;;;;4157452;28;19996;-81
2023/07/01 05:54:24;;;;;;;;;;;15.60;63.80;;;;;;4187875;28;19921;-81
2023/07/01 05:56:24;;;;;;;;;;;15.60;63.90;;;;;;4159374;28;19921;-81
2023/07/01 05:58:25;;;;;;;;;;;15.60;64.00;;;;;;4164866;28;19913;-81
2023/07/01 06:00:26;;;;;;;;;;;15.70;64.40;;;;;;4192445;28;20404;-81
2023/07/01 06:02:40;;;;;;;;;;;15.70;64.40;;;;;;4168737;28;19913;-79
2023/07/01 06:04:54;;;;;;;;;;;15.70;64.30;;;;;;4186440;28;20007;-83
2023/07/01 06:06:54;;;;;;;;;;;15.70;64.40;;;;;;4173554;28;19921;-81
2023/07/01 06:08:55;;;;;;;;;;;15.70;64.60;;;;;;4171934;28;19920;-79
2023/07/01 06:10:56;;;;;;;;;;;15.70;64.50;;;;;;4174913;28;19917;-79
2023/07/01 06:12:56;;;;;;;;;;;15.90;64.60;;;;;;4184960;28;19923;-81
2023/07/01 06:15:03;;;;;;;;;;;15.80;64.70;;;;;;4183879;28;19916;-83
2023/07/01 06:17:04;;;;;;;;;;;15.80;65.00;;;;;;4156162;28;19927;-81
2023/07/01 06:19:05;;;;;;;;;;;15.80;65.30;;;;;;4175741;28;19932;-82
2023/07/01 06:21:07;;;;;;;;;;;15.80;65.00;;;;;;4155749;28;19971;-83
2023/07/01 06:23:08;;;;;;;;;;;15.80;65.50;;;;;;4173198;28;20018;-83
2023/07/01 06:25:11;;;;;;;;;;;15.80;65.80;;;;;;4175693;28;19943;-83
2023/07/01 06:27:14;;;;;;;;;;;15.80;65.20;;;;;;4189264;28;19917;-83
2023/07/01 06:29:15;;;;;;;;;;;15.80;65.80;;;;;;4162293;28;19920;-83
2023/07/01 06:31:16;;;;;;;;;;;15.80;66.30;;;;;;4166269;28;19999;-83
2023/07/01 06:33:18;;;;;;;;;;;15.80;66.00;;;;;;4172925;28;23598;-85
2023/07/01 06:35:19;;;;;;;;;;;15.80;65.60;;;;;;4183938;28;19959;-82
2023/07/01 06:37:19;;;;;;;;;;;15.80;65.40;;;;;;4189972;28;20370;-81
2023/07/01 06:39:20;;;;;;;;;;;15.80;66.20;;;;;;4184531;28;19923;-83
2023/07/01 06:41:21;;;;;;;;;;;15.80;65.60;;;;;;4156756;28;19924;-81
2023/07/01 06:43:27;;;;;;;;;;;15.90;66.20;;;;;;4184163;28;20001;-83
2023/07/01 06:45:27;;;;;;;;;;;15.90;66.60;;;;;;4175948;28;19921;-83
2023/07/01 06:47:28;;;;;;;;;;;15.90;66.70;;;;;;4162417;28;19913;-81
2023/07/01 06:49:29;;;;;;;;;;;15.90;66.90;;;;;;4155593;28;19928;-81
2023/07/01 06:51:30;;;;;;;;;;;15.90;67.10;;;;;;4158599;28;19921;-83
2023/07/01 06:53:31;;;;;;;;;;;15.90;66.60;;;;;;4165693;28;20011;-83
2023/07/01 06:55:32;;;;;;;;;;;15.90;66.50;;;;;;4173302;28;19921;-83
2023/07/01 06:57:32;;;;;;;;;;;15.90;66.90;;;;;;4170608;28;19939;-81
2023/07/01 06:59:33;;;;;;;;;;;15.90;66.70;;;;;;4181038;28;19917;-84
2023/07/01 07:01:34;;;;;;;;;;;15.90;66.70;;;;;;4171939;28;19917;-82
2023/07/01 07:03:58;;;;;;;;;;;16.00;67.40;;;;;;4184903;28;20403;-84
2023/07/01 07:06:05;;;;;;;;;;;16.10;68.00;;;;;;4157276;28;20324;-84
2023/07/01 07:08:08;;;;;;;;;;;16.00;68.30;;;;;;4173740;28;19962;-82
2023/07/01 07:10:14;;;;;;;;;;;16.00;68.80;;;;;;4175649;28;20458;-85
2023/07/01 07:12:34;;;;;;;;;;;16.00;68.40;;;;;;4172754;28;20077;-84
2023/07/01 07:14:35;;;;;;;;;;;16.00;68.90;;;;;;4175243;28;19917;-82
2023/07/01 07:16:36;;;;;;;;;;;16.00;68.10;;;;;;4175883;28;19916;-82
2023/07/01 07:18:37;;;;;;;;;;;16.00;67.90;;;;;;4185811;28;19942;-86
2023/07/01 07:20:38;;;;;;;;;;;16.00;67.80;;;;;;4169866;28;19956;-83
2023/07/01 07:22:39;;;;;;;;;;;16.10;67.90;;;;;;4153407;28;19959;-83
2023/07/01 07:24:59;;;;;;;;;;;16.10;67.60;;;;;;4184666;28;20338;-84
2023/07/01 07:27:20;;;;;;;;;;;16.10;67.30;;;;;;4186783;28;19925;-86
2023/07/01 07:29:40;;;;;;;;;;;16.10;67.50;;;;;;4184441;28;20176;-84
2023/07/01 07:32:02;;;;;;;;;;;16.00;67.60;;;;;;4188316;28;19921;-85
2023/07/01 07:34:23;;;;;;;;;;;16.10;68.30;;;;;;4186315;28;20362;-85
2023/07/01 07:36:44;;;;;;;;;;;16.10;69.50;;;;;;4183851;28;19922;-84
2023/07/01 07:39:05;;;;;;;;;;;16.10;69.00;;;;;;4186976;28;19921;-84
2023/07/01 07:41:26;;;;;;;;;;;16.10;68.40;;;;;;4173272;28;19921;-85
2023/07/01 07:43:46;;;;;;;;;;;16.10;68.70;;;;;;4192545;28;19912;-82
2023/07/01 07:46:07;;;;;;;;;;;16.10;68.80;;;;;;4177252;28;19917;-81
2023/07/01 07:48:28;;;;;;;;;;;16.20;68.70;;;;;;4191789;28;20456;-85
2023/07/01 07:50:49;;;;;;;;;;;16.20;68.60;;;;;;4170729;28;20343;-85
2023/07/01 07:53:09;;;;;;;;;;;16.20;70.40;;;;;;4174356;28;20387;-82
2023/07/01 07:55:33;;;;;;;;;;;16.20;69.60;;;;;;4197305;28;20331;-83
2023/07/01 07:57:54;;;;;;;;;;;16.30;69.10;;;;;;4171201;28;19933;-83
2023/07/01 08:00:14;;;;;;;;;;;16.20;68.70;;;;;;4180216;28;21154;-83
2023/07/01 08:02:38;;;;;;;;;;;16.30;69.80;;;;;;4178719;28;19913;-84
2023/07/01 08:04:58;;;;;;;;;;;16.30;69.10;;;;;;4177152;28;19927;-84
2023/07/01 08:07:19;;;;;;;;;;;16.30;68.70;;;;;;4180097;28;20306;-83
2023/07/01 08:09:40;;;;;;;;;;;16.30;68.60;;;;;;4186388;28;19920;-85
2023/07/01 08:12:01;;;;;;;;;;;16.30;68.60;;;;;;4176553;28;20195;-84
2023/07/01 08:14:21;;;;;;;;;;;16.30;68.60;;;;;;4188741;28;21601;-82
2023/07/01 08:16:42;;;;;;;;;;;16.30;69.20;;;;;;4188672;28;20338;-82
2023/07/01 08:19:03;;;;;;;;;;;16.30;68.70;;;;;;4169015;28;19917;-83
2023/07/01 08:21:23;;;;;;;;;;;16.30;68.70;;;;;;4170620;28;19931;-84
2023/07/01 08:23:44;;;;;;;;;;;16.20;68.60;;;;;;4172006;28;19921;-83
2023/07/01 08:26:05;;;;;;;;;;;16.30;69.60;;;;;;4190338;28;20365;-84
2023/07/01 08:28:31;;;;;;;;;;;16.30;69.60;;;;;;4194952;28;19916;-85
2023/07/01 08:30:51;;;;;;;;;;;16.20;69.10;;;;;;4164916;28;20554;-85
2023/07/01 08:33:12;;;;;;;;;;;16.20;70.00;;;;;;4181381;28;19920;-84
2023/07/01 08:35:33;;;;;;;;;;;16.30;69.80;;;;;;4187095;28;19920;-84
2023/07/01 08:37:53;;;;;;;;;;;16.30;69.40;;;;;;4185840;28;19995;-83
2023/07/01 08:40:14;;;;;;;;;;;16.30;70.00;;;;;;4183859;28;20334;-83
2023/07/01 08:42:40;;;;;;;;;;;16.30;69.60;;;;;;4181548;28;19917;-84
2023/07/01 08:44:41;;;;;;;;;;;16.30;69.60;;;;;;4182950;28;19932;-84
2023/07/01 08:46:42;;;;;;;;;;;16.30;69.30;;;;;;4187214;28;20391;-84
2023/07/01 08:48:44;;;;;;;;;;;16.30;69.70;;;;;;4168053;28;19916;-84
2023/07/01 08:50:53;;;;;;;;;;;16.40;70.30;;;;;;4174770;28;19920;-81
2023/07/01 08:52:59;;;;;;;;;;;16.30;69.90;;;;;;4166761;28;20247;-84
2023/07/01 08:54:59;;;;;;;;;;;16.30;69.70;;;;;;4176336;28;19916;-86
2023/07/01 08:57:00;;;;;;;;;;;16.40;69.90;;;;;;4184563;28;19924;-81
2023/07/01 08:59:02;;;;;;;;;;;16.30;69.90;;;;;;4185409;28;20066;-84
2023/07/01 09:01:03;;;;;;;;;;;16.30;70.00;;;;;;4172379;28;19925;-84
2023/07/01 09:03:04;;;;;;;;;;;16.30;69.80;;;;;;4173247;28;19920;-81
2023/07/01 09:05:08;;;;;;;;;;;16.30;70.20;;;;;;4175841;28;19917;-83
2023/07/01 09:07:10;;;;;;;;;;;16.30;70.60;;;;;;4172298;28;19920;-82
2023/07/01 09:09:10;;;;;;;;;;;16.40;71.50;;;;;;4159269;28;20412;-85
2023/07/01 09:11:15;;;;;;;;;;;16.40;71.20;;;;;;4154960;28;19979;-84
2023/07/01 09:13:15;;;;;;;;;;;16.40;71.10;;;;;;4169175;28;20003;-84
2023/07/01 09:15:16;;;;;;;;;;;16.40;71.00;;;;;;4169510;28;19917;-84
2023/07/01 09:17:25;;;;;;;;;;;16.40;71.00;;;;;;4173590;28;19925;-84
2023/07/01 09:19:29;;;;;;;;;;;16.40;71.40;;;;;;4172743;28;20435;-84
2023/07/01 09:21:32;;;;;;;;;;;16.40;71.70;;;;;;4161422;28;19917;-84
2023/07/01 09:23:35;;;;;;;;;;;16.40;71.10;;;;;;4188112;28;19916;-83
2023/07/01 09:25:36;;;;;;;;;;;16.40;71.10;;;;;;4168196;28;19913;-84
2023/07/01 09:27:39;;;;;;;;;;;16.50;71.30;;;;;;4158932;28;19936;-86
2023/07/01 09:29:40;;;;;;;;;;;16.40;71.10;;;;;;4156090;28;19909;-83
2023/07/01 09:31:47;;;;;;;;;;;16.50;71.50;;;;;;4189118;28;20410;-80
2023/07/01 09:34:08;;;;;;;;;;;16.40;71.10;;;;;;4177962;28;19966;-83
2023/07/01 09:36:18;;;;;;;;;;;16.50;71.30;;;;;;4172390;28;20053;-85
2023/07/01 09:38:19;;;;;;;;;;;16.40;71.60;;;;;;4174227;28;20360;-83
2023/07/01 09:40:21;;;;;;;;;;;16.50;71.40;;;;;;4174817;28;19921;-85
2023/07/01 09:42:22;;;;;;;;;;;16.50;72.40;;;;;;4174474;28;19978;-85
2023/07/01 09:44:22;;;;;;;;;;;16.50;72.10;;;;;;4178046;28;19974;-84
2023/07/01 09:46:24;;;;;;;;;;;16.50;72.10;;;;;;4188857;28;19928;-85
2023/07/01 09:48:25;;;;;;;;;;;16.50;71.70;;;;;;4188566;28;19923;-83
2023/07/01 09:50:30;;;;;;;;;;;16.50;72.10;;;;;;4174006;28;19913;-85
2023/07/01 09:52:31;;;;;;;;;;;16.50;73.00;;;;;;4185870;28;20440;-84
2023/07/01 09:54:32;;;;;;;;;;;16.50;72.70;;;;;;4172047;28;19936;-84
2023/07/01 09:56:33;;;;;;;;;;;16.60;72.30;;;;;;4156877;28;20297;-84
2023/07/01 09:58:34;;;;;;;;;;;16.50;72.60;;;;;;4152696;28;19918;-84
2023/07/01 10:00:54;;;;;;;;;;;16.60;74.10;;;;;;4180532;28;20057;-84
2023/07/01 10:03:15;;;;;;;;;;;16.60;72.60;;;;;;4171085;28;19967;-85
2023/07/01 10:05:20;;;;;;;;;;;16.60;74.40;;;;;;4161407;28;19944;-85
2023/07/01 10:07:42;;;;;;;;;;;16.60;73.90;;;;;;4179350;28;20392;-82
2023/07/01 10:10:02;;;;;;;;;;;16.60;73.70;;;;;;4182828;28;19916;-85
2023/07/01 10:12:08;;;;;;;;;;;16.60;73.90;;;;;;4153043;28;20435;-83
2023/07/01 10:14:31;;;;;;;;;;;16.60;74.10;;;;;;4178419;28;20288;-86
2023/07/01 10:16:52;;;;;;;;;;;16.60;74.10;;;;;;4179536;28;20023;-85
2023/07/01 10:19:00;;;;;;;;;;;16.50;73.50;;;;;;4166025;28;20516;-83
2023/07/01 10:21:24;;;;;;;;;;;16.60;73.50;;;;;;4137784;28;19994;-81
2023/07/01 10:23:47;;;;;;;;;;;16.70;73.90;;;;;;4172127;28;19913;-83
2023/07/01 10:26:30;;;;;;;;;;;16.80;74.00;;;;;;4170524;28;20289;-84
2023/07/01 10:28:50;;;;;;;;;;;16.80;73.50;;;;;;4167410;28;19956;-84
2023/07/01 10:31:11;;;;;;;;;;;16.80;74.10;;;;;;4167883;28;19923;-84
2023/07/01 10:33:33;;;;;;;;;;;16.80;73.60;;;;;;4149961;28;19913;-84
2023/07/01 10:36:03;;;;;;;;;;;16.80;74.40;;;;;;4156472;28;19921;-81
2023/07/01 10:38:23;;;;;;;;;;;16.90;74.70;;;;;;4154226;28;19924;-84
2023/07/01 10:40:45;;;;;;;;;;;17.10;74.90;;;;;;4174831;28;19988;-84
2023/07/01 10:43:18;;;;;;;;;;;17.00;74.90;;;;;;4147497;28;19917;-85
2023/07/01 10:45:39;;;;;;;;;;;17.10;76.50;;;;;;4171557;28;19913;-85
2023/07/01 10:48:03;;;;;;;;;;;17.10;76.00;;;;;;4172100;28;20000;-85
2023/07/01 10:50:23;;;;;;;;;;;17.20;76.00;;;;;;4170564;28;19917;-84
2023/07/01 10:52:59;;;;;;;;;;;17.30;75.60;;;;;;4160484;28;20293;-85
2023/07/01 10:55:46;;;;;;;;;;;17.40;75.50;;;;;;4173860;28;19917;-83
2023/07/01 10:58:13;;;;;;;;;;;17.40;74.90;;;;;;4171934;28;19916;-87
2023/07/01 11:00:37;;;;;;;;;;;17.50;75.90;;;;;;4169113;28;19921;-85
2023/07/01 11:02:58;;;;;;;;;;;17.60;75.70;;;;;;4157441;28;19917;-85
2023/07/01 11:05:21;;;;;;;;;;;17.60;76.20;;;;;;4176044;28;19912;-84
2023/07/01 11:07:44;;;;;;;;;;;17.70;76.70;;;;;;4166676;28;20930;-86
2023/07/01 11:10:06;;;;;;;;;;;17.80;77.40;;;;;;4171584;28;19964;-84
2023/07/01 11:12:27;;;;;;;;;;;17.90;77.10;;;;;;4158730;28;19916;-85
2023/07/01 11:14:50;;;;;;;;;;;18.00;77.10;;;;;;4171278;28;19921;-85
2023/07/01 11:17:13;;;;;;;;;;;18.10;76.50;;;;;;4167607;28;19975;-86
2023/07/01 11:19:34;;;;;;;;;;;18.10;75.80;;;;;;4176643;28;19924;-85
2023/07/01 11:21:55;;;;;;;;;;;18.10;75.40;;;;;;4177500;28;19958;-86
2023/07/01 11:24:20;;;;;;;;;;;18.10;76.30;;;;;;4159477;28;19920;-84
2023/07/01 11:26:42;;;;;;;;;;;18.20;75.90;;;;;;4158349;28;20024;-84
2023/07/01 11:29:09;;;;;;;;;;;18.20;75.20;;;;;;4173434;28;19944;-84
2023/07/01 11:31:31;;;;;;;;;;;18.20;76.00;;;;;;4163652;28;19921;-84
2023/07/01 11:33:52;;;;;;;;;;;18.20;75.30;;;;;;4171951;28;19919;-85
2023/07/01 11:36:16;;;;;;;;;;;18.20;76.20;;;;;;4173454;28;19919;-85
2023/07/01 11:38:36;;;;;;;;;;;18.20;75.60;;;;;;4174198;28;19986;-83
2023/07/01 11:40:55;;;;;;;;;;;18.20;75.70;;;;;;4176037;28;20483;-84
2023/07/01 11:43:14;;;;;;;;;;;18.30;76.00;;;;;;4174912;28;20105;-84
2023/07/01 11:45:43;;;;;;;;;;;18.20;74.80;;;;;;4158405;28;20313;-84
2023/07/01 11:48:02;;;;;;;;;;;18.30;76.10;;;;;;4159981;28;19986;-86
2023/07/01 11:50:21;;;;;;;;;;;18.20;75.40;;;;;;4173904;28;19932;-84
2023/07/01 11:52:41;;;;;;;;;;;18.20;74.70;;;;;;4170842;28;19935;-83
2023/07/01 11:55:00;;;;;;;;;;;18.20;74.70;;;;;;4168215;28;20048;-85
2023/07/01 11:57:20;;;;;;;;;;;18.20;74.70;;;;;;4176254;28;19932;-84
2023/07/01 11:59:40;;;;;;;;;;;18.10;75.00;;;;;;4169754;28;19924;-83
2023/07/01 12:01:59;;;;;;;;;;;18.20;75.10;;;;;;4159968;28;20019;-84
2023/07/01 12:04:19;;;;;;;;;;;18.10;75.30;;;;;;4176927;28;19947;-84
2023/07/01 12:06:38;;;;;;;;;;;18.10;75.90;;;;;;4172147;28;20354;-84
2023/07/01 12:09:00;;;;;;;;;;;18.10;75.90;;;;;;4177992;28;19932;-85
2023/07/01 12:11:20;;;;;;;;;;;18.10;75.10;;;;;;4164124;28;20478;-85
2023/07/01 12:13:39;;;;;;;;;;;18.10;75.50;;;;;;4176949;28;19927;-86
2023/07/01 12:16:01;;;;;;;;;;;18.10;76.30;;;;;;4162172;28;19944;-85
2023/07/01 12:18:29;;;;;;;;;;;18.10;75.20;;;;;;4157359;28;20403;-84
2023/07/01 12:20:49;;;;;;;;;;;18.10;75.70;;;;;;4174360;28;20016;-85
2023/07/01 12:23:11;;;;;;;;;;;18.10;77.00;;;;;;4173143;28;19935;-84
2023/07/01 12:25:30;;;;;;;;;;;18.20;76.90;;;;;;4175471;28;19931;-84
2023/07/01 12:27:50;;;;;;;;;;;18.20;76.90;;;;;;4175963;28;19923;-85
2023/07/01 12:30:09;;;;;;;;;;;18.20;77.10;;;;;;4161332;28;19952;-85
2023/07/01 12:32:28;;;;;;;;;;;18.20;76.70;;;;;;4173121;28;19973;-84
2023/07/01 12:34:48;;;;;;;;;;;18.30;77.70;;;;;;4171658;28;19928;-84
2023/07/01 12:37:07;;;;;;;;;;;18.30;77.60;;;;;;4157099;28;20369;-86
2023/07/01 12:39:27;;;;;;;;;;;18.30;76.80;;;;;;4175350;28;19916;-86
2023/07/01 12:41:52;;;;;;;;;;;18.30;78.00;;;;;;4198142;28;19919;-87
2023/07/01 12:44:11;;;;;;;;;;;18.30;77.40;;;;;;4193458;28;19940;-87